Terminal Aerodrome Forecast
Issued by NWS Pueblo, CO

Home | Current Version | Previous Version | Text Only | Print | Product List | Glossary On
Versions: 1 2 3 4 5 6 7 8 9 10 11 12 13 14 15 16 17 18 19 20 21 22 23 24 25 26 27 28
676
FTUS45 KPUB 041125
TAFPUB
TAF
KPUB 041125Z 0412/0512 VRB03KT P6SM SKC
     FM041900 13007KT P6SM FEW110 SCT200
     FM050300 29008KT P6SM SCT110 BKN200=

USA.gov is the U.S. government's official web portal to all federal, state and local government web resources and services.